Aviation Digital Data Service (ADDS)

Output produced by METARs form (2133 UTC 20 August 2019)
found at http://www.aviationweather.gov/metar/data/
 
Forecast for: SLVR (VIRU VIRU INTL A, BO)
Text: TAF SLVR 201600Z 2018/2118 17012G25KT 9999 BKN070 TX26/2020Z TN19/ 2111Z
Forecast period: 1800 to 2100 UTC 20 August 2019
Forecast type: FROM: standard forecast or significant change
Winds: from the S (170 degrees) at 14 MPH (12 knots; 6.2 m/s)
gusting to 29 MPH (25 knots; 12.9 m/s)
Visibility: 6 or more miles 10+ km)
Ceiling: 7000 feet AGL
Clouds: broken clouds at 7000 feet AGL
Weather: no significant weather forecast for this period
Text: BECMG 2021/2101 15008KT SCT080
Forecast period: 2100 UTC 20 August 2019 to 1800 UTC 21 August 2019
Forecast type: BECOMING: Conditions expected to become as follows by 0100 UTC 21 August 2019
Winds: from the SSE (150 degrees) at 9 MPH (8 knots; 4.1 m/s)
Visibility: 6 or more miles 10+ km)
Ceiling: at least 12,000 feet AGL
Clouds: scattered clouds at 8000 feet AGL
Weather: no significant weather forecast for this period
Text: TEMPO 2115/2118 VRB02KT NSC
Forecast period: 1500 to 1800 UTC 21 August 2019
Forecast type: TEMPORARY: The following changes expected for less than half the time period
Winds: variable direction winds at 2 MPH (2 knots; 1.0 m/s)
Visibility: missing
Ceiling: unknown
Clouds: missing
Weather: no significant weather forecast for this period